sensor_id;sensor_type;location;lat;lon;timestamp;temperature;humidity
74940;HTU21D;63505;45.226;37.908;2023-04-03T00:00:25;9.59;69.94
74940;HTU21D;63505;45.226;37.908;2023-04-03T00:02:50;9.78;70.45
74940;HTU21D;63505;45.226;37.908;2023-04-03T00:05:16;9.93;70.65
74940;HTU21D;63505;45.226;37.908;2023-04-03T00:07:42;10.06;70.64
74940;HTU21D;63505;45.226;37.908;2023-04-03T00:10:08;10.14;70.90
74940;HTU21D;63505;45.226;37.908;2023-04-03T00:12:34;10.28;71.58
74940;HTU21D;63505;45.226;37.908;2023-04-03T00:15:00;10.42;72.05
74940;HTU21D;63505;45.226;37.908;2023-04-03T00:17:26;10.53;72.61
74940;HTU21D;63505;45.226;37.908;2023-04-03T00:19:52;10.64;73.27
74940;HTU21D;63505;45.226;37.908;2023-04-03T00:22:18;10.70;73.51
74940;HTU21D;63505;45.226;37.908;2023-04-03T00:24:43;10.74;73.72
74940;HTU21D;63505;45.226;37.908;2023-04-03T00:27:09;10.80;74.73
74940;HTU21D;63505;45.226;37.908;2023-04-03T00:29:36;10.82;74.60
74940;HTU21D;63505;45.226;37.908;2023-04-03T00:32:02;10.86;74.67
74940;HTU21D;63505;45.226;37.908;2023-04-03T00:34:28;10.86;74.51
74940;HTU21D;63505;45.226;37.908;2023-04-03T00:36:54;10.87;74.53
74940;HTU21D;63505;45.226;37.908;2023-04-03T00:39:20;10.92;74.94
74940;HTU21D;63505;45.226;37.908;2023-04-03T00:41:46;10.93;75.02
74940;HTU21D;63505;45.226;37.908;2023-04-03T00:47:00;10.95;75.21
74940;HTU21D;63505;45.226;37.908;2023-04-03T00:49:27;10.97;75.25
74940;HTU21D;63505;45.226;37.908;2023-04-03T00:51:54;10.97;75.34
74940;HTU21D;63505;45.226;37.908;2023-04-03T00:54:21;10.96;75.41
74940;HTU21D;63505;45.226;37.908;2023-04-03T00:56:48;10.96;75.28
74940;HTU21D;63505;45.226;37.908;2023-04-03T00:59:20;10.96;75.25
74940;HTU21D;63505;45.226;37.908;2023-04-03T01:01:49;10.96;75.25
74940;HTU21D;63505;45.226;37.908;2023-04-03T01:04:32;10.97;75.55
74940;HTU21D;63505;45.226;37.908;2023-04-03T01:07:06;10.98;75.44
74940;HTU21D;63505;45.226;37.908;2023-04-03T01:09:33;10.97;75.41
74940;HTU21D;63505;45.226;37.908;2023-04-03T01:12:39;10.93;75.51
74940;HTU21D;63505;45.226;37.908;2023-04-03T01:15:09;10.90;75.58
74940;HTU21D;63505;45.226;37.908;2023-04-03T01:17:51;10.89;75.73
74940;HTU21D;63505;45.226;37.908;2023-04-03T01:25:42;10.73;75.97
74940;HTU21D;63505;45.226;37.908;2023-04-03T01:28:25;10.68;76.18
74940;HTU21D;63505;45.226;37.908;2023-04-03T01:33:40;10.59;76.40
74940;HTU21D;63505;45.226;37.908;2023-04-03T01:36:07;10.55;76.42
74940;HTU21D;63505;45.226;37.908;2023-04-03T01:38:34;10.51;76.85
74940;HTU21D;63505;45.226;37.908;2023-04-03T01:40:59;10.50;77.00
74940;HTU21D;63505;45.226;37.908;2023-04-03T01:43:25;10.46;77.09
74940;HTU21D;63505;45.226;37.908;2023-04-03T01:45:51;10.45;77.44
74940;HTU21D;63505;45.226;37.908;2023-04-03T01:48:20;10.43;77.90
74940;HTU21D;63505;45.226;37.908;2023-04-03T01:50:46;10.40;78.06
74940;HTU21D;63505;45.226;37.908;2023-04-03T01:53:13;10.39;78.17
74940;HTU21D;63505;45.226;37.908;2023-04-03T01:55:39;10.37;78.17
74940;HTU21D;63505;45.226;37.908;2023-04-03T01:58:05;10.36;78.40
74940;HTU21D;63505;45.226;37.908;2023-04-03T02:00:31;10.34;78.36
74940;HTU21D;63505;45.226;37.908;2023-04-03T02:02:57;10.34;78.30
74940;HTU21D;63505;45.226;37.908;2023-04-03T02:05:24;10.33;78.65
74940;HTU21D;63505;45.226;37.908;2023-04-03T02:07:51;10.34;79.09
74940;HTU21D;63505;45.226;37.908;2023-04-03T02:10:17;10.35;79.40
74940;HTU21D;63505;45.226;37.908;2023-04-03T02:12:43;10.37;79.53
74940;HTU21D;63505;45.226;37.908;2023-04-03T02:15:09;10.38;79.89
74940;HTU21D;63505;45.226;37.908;2023-04-03T02:17:35;10.42;80.54
74940;HTU21D;63505;45.226;37.908;2023-04-03T02:20:01;10.46;80.90
74940;HTU21D;63505;45.226;37.908;2023-04-03T02:22:28;10.50;81.04
74940;HTU21D;63505;45.226;37.908;2023-04-03T02:24:54;10.53;80.98
74940;HTU21D;63505;45.226;37.908;2023-04-03T02:27:20;10.56;80.85
74940;HTU21D;63505;45.226;37.908;2023-04-03T02:29:48;10.59;81.26
74940;HTU21D;63505;45.226;37.908;2023-04-03T02:32:14;10.64;81.61
74940;HTU21D;63505;45.226;37.908;2023-04-03T02:34:40;10.65;81.43
74940;HTU21D;63505;45.226;37.908;2023-04-03T02:37:07;10.69;81.54
74940;HTU21D;63505;45.226;37.908;2023-04-03T02:39:34;10.73;81.54
74940;HTU21D;63505;45.226;37.908;2023-04-03T02:42:00;10.74;81.36
74940;HTU21D;63505;45.226;37.908;2023-04-03T02:44:27;10.73;81.32
74940;HTU21D;63505;45.226;37.908;2023-04-03T02:46:53;10.75;81.36
74940;HTU21D;63505;45.226;37.908;2023-04-03T02:49:19;10.77;81.45
74940;HTU21D;63505;45.226;37.908;2023-04-03T02:51:45;10.78;81.64
74940;HTU21D;63505;45.226;37.908;2023-04-03T02:54:12;10.79;81.78
74940;HTU21D;63505;45.226;37.908;2023-04-03T02:56:42;10.79;81.84
74940;HTU21D;63505;45.226;37.908;2023-04-03T02:59:08;10.80;81.85
74940;HTU21D;63505;45.226;37.908;2023-04-03T03:01:37;10.81;81.74
74940;HTU21D;63505;45.226;37.908;2023-04-03T03:04:03;10.81;81.74
74940;HTU21D;63505;45.226;37.908;2023-04-03T03:06:29;10.80;81.76
74940;HTU21D;63505;45.226;37.908;2023-04-03T03:08:55;10.81;81.68
74940;HTU21D;63505;45.226;37.908;2023-04-03T03:11:21;10.79;81.67
74940;HTU21D;63505;45.226;37.908;2023-04-03T03:13:46;10.82;81.62
74940;HTU21D;63505;45.226;37.908;2023-04-03T03:16:12;10.84;81.68
74940;HTU21D;63505;45.226;37.908;2023-04-03T03:18:38;10.86;81.76
74940;HTU21D;63505;45.226;37.908;2023-04-03T03:21:04;10.89;81.68
74940;HTU21D;63505;45.226;37.908;2023-04-03T03:23:31;10.90;81.65
74940;HTU21D;63505;45.226;37.908;2023-04-03T03:26:05;10.95;81.78
74940;HTU21D;63505;45.226;37.908;2023-04-03T03:28:34;10.99;81.78
74940;HTU21D;63505;45.226;37.908;2023-04-03T03:31:00;11.01;81.63
74940;HTU21D;63505;45.226;37.908;2023-04-03T03:33:27;11.05;81.52
74940;HTU21D;63505;45.226;37.908;2023-04-03T03:35:53;11.10;81.54
74940;HTU21D;63505;45.226;37.908;2023-04-03T03:38:20;11.15;81.61
74940;HTU21D;63505;45.226;37.908;2023-04-03T03:40:50;11.19;81.64
74940;HTU21D;63505;45.226;37.908;2023-04-03T03:43:19;11.22;81.69
74940;HTU21D;63505;45.226;37.908;2023-04-03T03:45:51;11.26;81.68
74940;HTU21D;63505;45.226;37.908;2023-04-03T03:48:19;11.30;81.63
74940;HTU21D;63505;45.226;37.908;2023-04-03T03:50:46;11.33;81.64
74940;HTU21D;63505;45.226;37.908;2023-04-03T03:53:12;11.37;81.61
74940;HTU21D;63505;45.226;37.908;2023-04-03T03:55:39;11.40;81.55
74940;HTU21D;63505;45.226;37.908;2023-04-03T03:58:05;11.44;81.37
74940;HTU21D;63505;45.226;37.908;2023-04-03T04:00:33;11.47;81.19
74940;HTU21D;63505;45.226;37.908;2023-04-03T04:02:59;11.49;81.05
74940;HTU21D;63505;45.226;37.908;2023-04-03T04:05:27;11.53;80.97
74940;HTU21D;63505;45.226;37.908;2023-04-03T04:07:53;11.57;80.96
74940;HTU21D;63505;45.226;37.908;2023-04-03T04:10:20;11.59;80.93
74940;HTU21D;63505;45.226;37.908;2023-04-03T04:12:46;11.61;81.05
74940;HTU21D;63505;45.226;37.908;2023-04-03T04:15:15;11.63;81.02
74940;HTU21D;63505;45.226;37.908;2023-04-03T04:17:41;11.66;80.95
74940;HTU21D;63505;45.226;37.908;2023-04-03T04:20:11;11.69;80.94
74940;HTU21D;63505;45.226;37.908;2023-04-03T04:22:38;11.69;80.91
74940;HTU21D;63505;45.226;37.908;2023-04-03T04:25:05;11.71;80.78
74940;HTU21D;63505;45.226;37.908;2023-04-03T04:27:31;11.73;80.78
74940;HTU21D;63505;45.226;37.908;2023-04-03T04:29:57;11.74;80.78
74940;HTU21D;63505;45.226;37.908;2023-04-03T04:32:23;11.75;80.69
74940;HTU21D;63505;45.226;37.908;2023-04-03T04:34:50;11.76;80.59
74940;HTU21D;63505;45.226;37.908;2023-04-03T04:37:16;11.77;80.59
74940;HTU21D;63505;45.226;37.908;2023-04-03T04:39:41;11.78;80.54
74940;HTU21D;63505;45.226;37.908;2023-04-03T04:42:08;11.79;80.59
74940;HTU21D;63505;45.226;37.908;2023-04-03T04:44:39;11.79;80.54
74940;HTU21D;63505;45.226;37.908;2023-04-03T04:47:06;11.77;80.50
74940;HTU21D;63505;45.226;37.908;2023-04-03T04:49:32;11.78;80.44
74940;HTU21D;63505;45.226;37.908;2023-04-03T04:51:59;11.77;80.36
74940;HTU21D;63505;45.226;37.908;2023-04-03T04:54:29;11.72;80.40
74940;HTU21D;63505;45.226;37.908;2023-04-03T04:56:56;11.72;80.52
74940;HTU21D;63505;45.226;37.908;2023-04-03T04:59:21;11.70;80.59
74940;HTU21D;63505;45.226;37.908;2023-04-03T05:01:49;11.67;80.59
74940;HTU21D;63505;45.226;37.908;2023-04-03T05:04:16;11.64;80.55
74940;HTU21D;63505;45.226;37.908;2023-04-03T05:06:44;11.64;80.46
74940;HTU21D;63505;45.226;37.908;2023-04-03T05:09:15;11.61;80.44
74940;HTU21D;63505;45.226;37.908;2023-04-03T05:11:42;11.58;80.39
74940;HTU21D;63505;45.226;37.908;2023-04-03T05:14:09;11.58;80.34
74940;HTU21D;63505;45.226;37.908;2023-04-03T05:16:35;11.57;80.30
74940;HTU21D;63505;45.226;37.908;2023-04-03T05:19:02;11.58;80.15
74940;HTU21D;63505;45.226;37.908;2023-04-03T05:21:29;11.58;80.00
74940;HTU21D;63505;45.226;37.908;2023-04-03T05:24:00;11.59;80.10
74940;HTU21D;63505;45.226;37.908;2023-04-03T05:26:31;11.66;80.16
74940;HTU21D;63505;45.226;37.908;2023-04-03T05:28:57;11.81;80.11
74940;HTU21D;63505;45.226;37.908;2023-04-03T05:31:23;12.01;79.88
74940;HTU21D;63505;45.226;37.908;2023-04-03T05:33:50;12.17;79.44
74940;HTU21D;63505;45.226;37.908;2023-04-03T05:36:17;12.23;79.12
74940;HTU21D;63505;45.226;37.908;2023-04-03T05:38:47;12.29;78.86
74940;HTU21D;63505;45.226;37.908;2023-04-03T05:41:14;12.31;78.62
74940;HTU21D;63505;45.226;37.908;2023-04-03T05:43:42;12.32;78.48
74940;HTU21D;63505;45.226;37.908;2023-04-03T05:46:17;12.41;78.40
74940;HTU21D;63505;45.226;37.908;2023-04-03T05:48:46;12.67;78.24
74940;HTU21D;63505;45.226;37.908;2023-04-03T05:51:24;13.14;77.72
74940;HTU21D;63505;45.226;37.908;2023-04-03T05:54:13;13.56;76.71
74940;HTU21D;63505;45.226;37.908;2023-04-03T05:56:42;13.86;75.49
74940;HTU21D;63505;45.226;37.908;2023-04-03T05:59:08;14.14;74.96
74940;HTU21D;63505;45.226;37.908;2023-04-03T06:01:35;14.39;74.24
74940;HTU21D;63505;45.226;37.908;2023-04-03T06:04:01;14.64;73.38
74940;HTU21D;63505;45.226;37.908;2023-04-03T06:06:49;14.91;72.37
74940;HTU21D;63505;45.226;37.908;2023-04-03T06:09:18;15.07;71.54
74940;HTU21D;63505;45.226;37.908;2023-04-03T06:11:44;15.19;70.46
74940;HTU21D;63505;45.226;37.908;2023-04-03T06:14:11;15.23;70.24
74940;HTU21D;63505;45.226;37.908;2023-04-03T06:16:37;15.14;69.49
74940;HTU21D;63505;45.226;37.908;2023-04-03T06:19:07;15.02;69.81
74940;HTU21D;63505;45.226;37.908;2023-04-03T06:21:35;15.00;69.81
74940;HTU21D;63505;45.226;37.908;2023-04-03T06:24:03;15.14;69.48
74940;HTU21D;63505;45.226;37.908;2023-04-03T06:26:29;15.39;68.93
74940;HTU21D;63505;45.226;37.908;2023-04-03T06:28:55;15.63;68.41
74940;HTU21D;63505;45.226;37.908;2023-04-03T06:31:21;15.93;67.89
74940;HTU21D;63505;45.226;37.908;2023-04-03T06:33:47;15.99;66.39
74940;HTU21D;63505;45.226;37.908;2023-04-03T06:36:13;15.93;65.55
74940;HTU21D;63505;45.226;37.908;2023-04-03T06:38:39;15.87;65.60
74940;HTU21D;63505;45.226;37.908;2023-04-03T06:41:05;15.88;65.49
74940;HTU21D;63505;45.226;37.908;2023-04-03T06:43:31;15.99;65.42
74940;HTU21D;63505;45.226;37.908;2023-04-03T06:45:57;16.13;65.28
74940;HTU21D;63505;45.226;37.908;2023-04-03T06:48:23;16.17;65.11
74940;HTU21D;63505;45.226;37.908;2023-04-03T06:50:49;16.28;64.10
74940;HTU21D;63505;45.226;37.908;2023-04-03T06:53:15;16.22;64.43
74940;HTU21D;63505;45.226;37.908;2023-04-03T06:55:41;16.19;64.46
74940;HTU21D;63505;45.226;37.908;2023-04-03T06:58:07;16.28;63.69
74940;HTU21D;63505;45.226;37.908;2023-04-03T07:00:33;16.26;63.37
74940;HTU21D;63505;45.226;37.908;2023-04-03T07:03:00;16.26;63.36
74940;HTU21D;63505;45.226;37.908;2023-04-03T07:05:26;16.34;62.89
74940;HTU21D;63505;45.226;37.908;2023-04-03T07:07:52;16.36;62.69
74940;HTU21D;63505;45.226;37.908;2023-04-03T07:10:18;16.40;62.69
74940;HTU21D;63505;45.226;37.908;2023-04-03T07:12:44;16.37;62.14
74940;HTU21D;63505;45.226;37.908;2023-04-03T07:15:11;16.25;62.18
74940;HTU21D;63505;45.226;37.908;2023-04-03T07:17:38;16.18;62.53
74940;HTU21D;63505;45.226;37.908;2023-04-03T07:20:04;16.17;62.46
74940;HTU21D;63505;45.226;37.908;2023-04-03T07:22:31;16.15;62.32
74940;HTU21D;63505;45.226;37.908;2023-04-03T07:24:57;16.20;62.50
74940;HTU21D;63505;45.226;37.908;2023-04-03T07:27:24;16.26;62.24
74940;HTU21D;63505;45.226;37.908;2023-04-03T07:29:51;16.30;62.28
74940;HTU21D;63505;45.226;37.908;2023-04-03T07:32:17;16.37;62.05
74940;HTU21D;63505;45.226;37.908;2023-04-03T07:34:43;16.50;61.99
74940;HTU21D;63505;45.226;37.908;2023-04-03T07:37:10;16.90;61.57
74940;HTU21D;63505;45.226;37.908;2023-04-03T07:39:36;17.32;60.36
74940;HTU21D;63505;45.226;37.908;2023-04-03T07:42:02;17.62;59.59
74940;HTU21D;63505;45.226;37.908;2023-04-03T07:44:28;17.82;58.45
74940;HTU21D;63505;45.226;37.908;2023-04-03T07:46:54;18.05;58.32
74940;HTU21D;63505;45.226;37.908;2023-04-03T07:49:23;18.42;57.87
74940;HTU21D;63505;45.226;37.908;2023-04-03T07:51:50;18.66;57.41
74940;HTU21D;63505;45.226;37.908;2023-04-03T07:54:16;18.92;56.70
74940;HTU21D;63505;45.226;37.908;2023-04-03T07:56:43;19.00;55.49
74940;HTU21D;63505;45.226;37.908;2023-04-03T07:59:10;19.15;55.80
74940;HTU21D;63505;45.226;37.908;2023-04-03T08:01:36;19.36;55.02
74940;HTU21D;63505;45.226;37.908;2023-04-03T08:04:02;19.47;54.17
74940;HTU21D;63505;45.226;37.908;2023-04-03T08:06:30;19.47;54.28
74940;HTU21D;63505;45.226;37.908;2023-04-03T08:08:58;19.48;53.59
74940;HTU21D;63505;45.226;37.908;2023-04-03T08:11:24;19.44;52.31
74940;HTU21D;63505;45.226;37.908;2023-04-03T08:13:52;19.54;52.38
74940;HTU21D;63505;45.226;37.908;2023-04-03T08:16:22;19.67;51.26
74940;HTU21D;63505;45.226;37.908;2023-04-03T08:18:49;19.26;51.61
74940;HTU21D;63505;45.226;37.908;2023-04-03T08:21:15;18.91;52.75
74940;HTU21D;63505;45.226;37.908;2023-04-03T08:23:41;18.80;52.49
74940;HTU21D;63505;45.226;37.908;2023-04-03T08:26:18;18.66;52.91
74940;HTU21D;63505;45.226;37.908;2023-04-03T08:28:44;18.65;52.78
74940;HTU21D;63505;45.226;37.908;2023-04-03T08:31:12;18.51;52.99
74940;HTU21D;63505;45.226;37.908;2023-04-03T08:33:39;18.30;53.59
74940;HTU21D;63505;45.226;37.908;2023-04-03T08:36:07;18.17;54.14
74940;HTU21D;63505;45.226;37.908;2023-04-03T08:38:34;18.03;54.46
74940;HTU21D;63505;45.226;37.908;2023-04-03T08:43:53;18.17;54.70
74940;HTU21D;63505;45.226;37.908;2023-04-03T08:46:24;18.56;54.46
74940;HTU21D;63505;45.226;37.908;2023-04-03T08:48:53;18.73;53.13
74940;HTU21D;63505;45.226;37.908;2023-04-03T08:51:20;18.63;52.86
74940;HTU21D;63505;45.226;37.908;2023-04-03T08:54:03;18.81;53.04
74940;HTU21D;63505;45.226;37.908;2023-04-03T08:56:31;19.32;53.10
74940;HTU21D;63505;45.226;37.908;2023-04-03T08:59:06;19.71;51.86
74940;HTU21D;63505;45.226;37.908;2023-04-03T09:01:37;19.80;50.08
74940;HTU21D;63505;45.226;37.908;2023-04-03T09:04:11;19.81;50.08
74940;HTU21D;63505;45.226;37.908;2023-04-03T09:06:38;19.84;49.75
74940;HTU21D;63505;45.226;37.908;2023-04-03T09:09:25;20.04;49.48
74940;HTU21D;63505;45.226;37.908;2023-04-03T09:12:19;19.88;48.27
74940;HTU21D;63505;45.226;37.908;2023-04-03T09:20:39;19.94;49.32
74940;HTU21D;63505;45.226;37.908;2023-04-03T09:24:05;20.05;48.94
74940;HTU21D;63505;45.226;37.908;2023-04-03T09:26:26;20.33;48.65
74940;HTU21D;63505;45.226;37.908;2023-04-03T09:29:01;20.45;48.27
74940;HTU21D;63505;45.226;37.908;2023-04-03T09:31:39;20.39;48.10
74940;HTU21D;63505;45.226;37.908;2023-04-03T09:34:10;20.25;47.24
74940;HTU21D;63505;45.226;37.908;2023-04-03T09:36:47;20.19;47.49
74940;HTU21D;63505;45.226;37.908;2023-04-03T09:39:17;20.20;47.60
74940;HTU21D;63505;45.226;37.908;2023-04-03T09:42:00;20.18;47.70
74940;HTU21D;63505;45.226;37.908;2023-04-03T09:44:37;20.17;47.83
74940;HTU21D;63505;45.226;37.908;2023-04-03T09:52:45;18.87;49.61
74940;HTU21D;63505;45.226;37.908;2023-04-03T09:55:22;18.50;50.51
74940;HTU21D;63505;45.226;37.908;2023-04-03T09:57:54;18.29;50.68
74940;HTU21D;63505;45.226;37.908;2023-04-03T10:00:27;18.28;51.13
74940;HTU21D;63505;45.226;37.908;2023-04-03T10:02:55;18.23;51.97
74940;HTU21D;63505;45.226;37.908;2023-04-03T10:05:36;17.99;52.88
74940;HTU21D;63505;45.226;37.908;2023-04-03T10:10:45;17.82;53.90
74940;HTU21D;63505;45.226;37.908;2023-04-03T10:13:17;17.67;54.21
74940;HTU21D;63505;45.226;37.908;2023-04-03T10:15:51;17.64;54.46
74940;HTU21D;63505;45.226;37.908;2023-04-03T10:27:03;18.28;54.93
74940;HTU21D;63505;45.226;37.908;2023-04-03T10:29:47;18.53;54.50
74940;HTU21D;63505;45.226;37.908;2023-04-03T10:38:37;18.83;53.38
74940;HTU21D;63505;45.226;37.908;2023-04-03T10:53:30;18.82;54.30
74940;HTU21D;63505;45.226;37.908;2023-04-03T10:59:32;18.98;54.11
74940;HTU21D;63505;45.226;37.908;2023-04-03T11:04:51;18.30;56.45
74940;HTU21D;63505;45.226;37.908;2023-04-03T11:07:24;18.53;56.48
74940;HTU21D;63505;45.226;37.908;2023-04-03T11:10:58;18.92;56.45
74940;HTU21D;63505;45.226;37.908;2023-04-03T11:13:04;19.02;54.72
74940;HTU21D;63505;45.226;37.908;2023-04-03T11:15:32;18.97;55.17
74940;HTU21D;63505;45.226;37.908;2023-04-03T11:18:02;18.89;55.96
74940;HTU21D;63505;45.226;37.908;2023-04-03T11:20:31;19.09;55.20
74940;HTU21D;63505;45.226;37.908;2023-04-03T11:23:20;18.91;54.89
74940;HTU21D;63505;45.226;37.908;2023-04-03T11:25:51;18.94;55.03
74940;HTU21D;63505;45.226;37.908;2023-04-03T11:28:18;18.78;54.97
74940;HTU21D;63505;45.226;37.908;2023-04-03T11:31:02;18.76;55.34
74940;HTU21D;63505;45.226;37.908;2023-04-03T11:33:58;18.39;55.49
74940;HTU21D;63505;45.226;37.908;2023-04-03T11:36:31;18.61;56.11
74940;HTU21D;63505;45.226;37.908;2023-04-03T11:39:02;18.93;55.68
74940;HTU21D;63505;45.226;37.908;2023-04-03T11:41:33;18.77;54.42
74940;HTU21D;63505;45.226;37.908;2023-04-03T11:44:00;18.36;55.83
74940;HTU21D;63505;45.226;37.908;2023-04-03T11:46:50;18.54;56.36
74940;HTU21D;63505;45.226;37.908;2023-04-03T12:16:26;17.65;58.34
74940;HTU21D;63505;45.226;37.908;2023-04-03T12:21:23;16.80;59.82
74940;HTU21D;63505;45.226;37.908;2023-04-03T12:24:03;16.72;60.77
74940;HTU21D;63505;45.226;37.908;2023-04-03T12:29:58;16.37;61.47
74940;HTU21D;63505;45.226;37.908;2023-04-03T12:32:43;16.64;61.84
74940;HTU21D;63505;45.226;37.908;2023-04-03T12:35:44;16.99;61.54
74940;HTU21D;63505;45.226;37.908;2023-04-03T12:38:53;17.23;60.47
74940;HTU21D;63505;45.226;37.908;2023-04-03T12:49:52;17.34;60.39
74940;HTU21D;63505;45.226;37.908;2023-04-03T12:52:39;17.59;59.67
74940;HTU21D;63505;45.226;37.908;2023-04-03T12:55:18;17.49;59.77
74940;HTU21D;63505;45.226;37.908;2023-04-03T12:57:45;17.28;59.76
74940;HTU21D;63505;45.226;37.908;2023-04-03T13:02:55;17.36;59.81
74940;HTU21D;63505;45.226;37.908;2023-04-03T13:05:22;17.41;59.51
74940;HTU21D;63505;45.226;37.908;2023-04-03T13:08:10;17.30;59.35
74940;HTU21D;63505;45.226;37.908;2023-04-03T13:11:00;17.25;60.02
74940;HTU21D;63505;45.226;37.908;2023-04-03T13:13:27;17.31;59.80
74940;HTU21D;63505;45.226;37.908;2023-04-03T13:15:54;17.03;59.82
74940;HTU21D;63505;45.226;37.908;2023-04-03T13:21:04;16.79;60.74
74940;HTU21D;63505;45.226;37.908;2023-04-03T13:23:32;16.61;61.36
74940;HTU21D;63505;45.226;37.908;2023-04-03T13:26:00;16.57;61.53
74940;HTU21D;63505;45.226;37.908;2023-04-03T13:28:30;16.81;61.41
74940;HTU21D;63505;45.226;37.908;2023-04-03T13:33:31;16.69;61.55
74940;HTU21D;63505;45.226;37.908;2023-04-03T13:36:19;16.58;61.34
74940;HTU21D;63505;45.226;37.908;2023-04-03T13:38:46;16.31;62.00
74940;HTU21D;63505;45.226;37.908;2023-04-03T13:41:26;16.31;62.47
74940;HTU21D;63505;45.226;37.908;2023-04-03T13:43:54;16.31;62.57
74940;HTU21D;63505;45.226;37.908;2023-04-03T13:46:26;16.17;62.70
74940;HTU21D;63505;45.226;37.908;2023-04-03T13:48:56;16.02;62.73
74940;HTU21D;63505;45.226;37.908;2023-04-03T13:51:25;15.99;63.31
74940;HTU21D;63505;45.226;37.908;2023-04-03T13:53:57;15.84;63.46
74940;HTU21D;63505;45.226;37.908;2023-04-03T13:56:35;15.63;64.37
74940;HTU21D;63505;45.226;37.908;2023-04-03T13:59:21;15.44;64.84
74940;HTU21D;63505;45.226;37.908;2023-04-03T14:07:09;15.36;65.88
74940;HTU21D;63505;45.226;37.908;2023-04-03T14:09:35;15.42;65.92
74940;HTU21D;63505;45.226;37.908;2023-04-03T14:12:07;15.53;65.79
74940;HTU21D;63505;45.226;37.908;2023-04-03T14:14:35;15.63;65.59
74940;HTU21D;63505;45.226;37.908;2023-04-03T14:17:10;15.62;65.09
74940;HTU21D;63505;45.226;37.908;2023-04-03T14:19:38;15.45;65.05
74940;HTU21D;63505;45.226;37.908;2023-04-03T14:22:17;15.31;65.62
74940;HTU21D;63505;45.226;37.908;2023-04-03T14:24:44;15.28;65.75
74940;HTU21D;63505;45.226;37.908;2023-04-03T14:27:35;15.22;65.80
74940;HTU21D;63505;45.226;37.908;2023-04-03T14:30:05;15.21;65.89
74940;HTU21D;63505;45.226;37.908;2023-04-03T14:32:32;15.22;65.86
74940;HTU21D;63505;45.226;37.908;2023-04-03T14:34:58;15.09;66.31
74940;HTU21D;63505;45.226;37.908;2023-04-03T14:37:26;14.92;66.55
74940;HTU21D;63505;45.226;37.908;2023-04-03T14:39:53;14.73;67.06
74940;HTU21D;63505;45.226;37.908;2023-04-03T14:42:24;14.55;67.71
74940;HTU21D;63505;45.226;37.908;2023-04-03T14:44:51;14.36;68.32
74940;HTU21D;63505;45.226;37.908;2023-04-03T14:47:21;14.22;68.79
74940;HTU21D;63505;45.226;37.908;2023-04-03T14:49:48;14.10;69.16
74940;HTU21D;63505;45.226;37.908;2023-04-03T14:52:26;13.95;69.64
74940;HTU21D;63505;45.226;37.908;2023-04-03T14:54:53;13.86;69.95
74940;HTU21D;63505;45.226;37.908;2023-04-03T14:57:21;13.77;70.33
74940;HTU21D;63505;45.226;37.908;2023-04-03T14:59:49;13.73;70.40
74940;HTU21D;63505;45.226;37.908;2023-04-03T15:04:50;13.64;70.83
74940;HTU21D;63505;45.226;37.908;2023-04-03T15:07:16;13.60;71.00
74940;HTU21D;63505;45.226;37.908;2023-04-03T15:09:42;13.56;71.08
74940;HTU21D;63505;45.226;37.908;2023-04-03T15:12:09;13.53;71.06
74940;HTU21D;63505;45.226;37.908;2023-04-03T15:14:35;13.48;70.93
74940;HTU21D;63505;45.226;37.908;2023-04-03T15:17:02;13.47;71.09
74940;HTU21D;63505;45.226;37.908;2023-04-03T15:19:32;13.46;71.02
74940;HTU21D;63505;45.226;37.908;2023-04-03T15:22:01;13.46;70.97
74940;HTU21D;63505;45.226;37.908;2023-04-03T15:24:27;13.38;71.20
74940;HTU21D;63505;45.226;37.908;2023-04-03T15:26:53;13.34;71.39
74940;HTU21D;63505;45.226;37.908;2023-04-03T15:29:18;13.30;71.57
74940;HTU21D;63505;45.226;37.908;2023-04-03T15:31:44;13.23;71.91
74940;HTU21D;63505;45.226;37.908;2023-04-03T15:34:11;13.19;72.03
74940;HTU21D;63505;45.226;37.908;2023-04-03T15:36:36;13.12;72.26
74940;HTU21D;63505;45.226;37.908;2023-04-03T15:39:02;13.08;72.68
74940;HTU21D;63505;45.226;37.908;2023-04-03T15:41:28;13.04;72.84
74940;HTU21D;63505;45.226;37.908;2023-04-03T15:43:54;12.99;72.94
74940;HTU21D;63505;45.226;37.908;2023-04-03T15:46:20;12.95;72.95
74940;HTU21D;63505;45.226;37.908;2023-04-03T15:48:46;12.91;73.07
74940;HTU21D;63505;45.226;37.908;2023-04-03T15:51:12;12.89;73.07
74940;HTU21D;63505;45.226;37.908;2023-04-03T15:53:38;12.86;73.27
74940;HTU21D;63505;45.226;37.908;2023-04-03T15:56:04;12.81;73.66
74940;HTU21D;63505;45.226;37.908;2023-04-03T15:58:30;12.77;73.69
74940;HTU21D;63505;45.226;37.908;2023-04-03T16:00:56;12.71;73.87
74940;HTU21D;63505;45.226;37.908;2023-04-03T16:03:21;12.66;74.05
74940;HTU21D;63505;45.226;37.908;2023-04-03T16:05:50;12.62;74.35
74940;HTU21D;63505;45.226;37.908;2023-04-03T16:08:16;12.60;74.35
74940;HTU21D;63505;45.226;37.908;2023-04-03T16:10:43;12.58;74.25
74940;HTU21D;63505;45.226;37.908;2023-04-03T16:13:11;12.55;74.39
74940;HTU21D;63505;45.226;37.908;2023-04-03T16:15:37;12.51;74.44
74940;HTU21D;63505;45.226;37.908;2023-04-03T16:18:04;12.47;74.60
74940;HTU21D;63505;45.226;37.908;2023-04-03T16:20:31;12.44;74.85
74940;HTU21D;63505;45.226;37.908;2023-04-03T16:22:58;12.41;74.79
74940;HTU21D;63505;45.226;37.908;2023-04-03T16:25:25;12.38;75.03
74940;HTU21D;63505;45.226;37.908;2023-04-03T16:27:52;12.35;75.33
74940;HTU21D;63505;45.226;37.908;2023-04-03T16:30:18;12.33;75.38
74940;HTU21D;63505;45.226;37.908;2023-04-03T16:32:44;12.29;75.28
74940;HTU21D;63505;45.226;37.908;2023-04-03T16:35:11;12.25;75.61
74940;HTU21D;63505;45.226;37.908;2023-04-03T16:37:38;12.21;76.01
74940;HTU21D;63505;45.226;37.908;2023-04-03T16:40:06;12.17;76.35
74940;HTU21D;63505;45.226;37.908;2023-04-03T16:42:32;12.13;76.37
74940;HTU21D;63505;45.226;37.908;2023-04-03T16:44:58;12.12;76.29
74940;HTU21D;63505;45.226;37.908;2023-04-03T16:47:26;12.08;76.32
74940;HTU21D;63505;45.226;37.908;2023-04-03T16:49:52;12.06;76.31
74940;HTU21D;63505;45.226;37.908;2023-04-03T16:52:18;12.02;76.45
74940;HTU21D;63505;45.226;37.908;2023-04-03T16:54:44;12.01;76.78
74940;HTU21D;63505;45.226;37.908;2023-04-03T16:57:10;11.97;76.83
74940;HTU21D;63505;45.226;37.908;2023-04-03T16:59:36;11.97;76.95
74940;HTU21D;63505;45.226;37.908;2023-04-03T17:02:02;11.94;76.92
74940;HTU21D;63505;45.226;37.908;2023-04-03T17:04:28;11.96;76.78
74940;HTU21D;63505;45.226;37.908;2023-04-03T17:06:54;11.94;76.72
74940;HTU21D;63505;45.226;37.908;2023-04-03T17:09:20;11.94;76.72
74940;HTU21D;63505;45.226;37.908;2023-04-03T17:11:48;11.96;76.92
74940;HTU21D;63505;45.226;37.908;2023-04-03T17:14:14;11.93;77.21